< < Back
Terminal Aerodrome Forecast


Current Version              Previous Versions:   1  2  3  4  5  6  7  8  9  

Terminal Aerodrome Forecast

019
FTUS44 KMRX 181120
TAFTYS
TAF
KTYS 181120Z 1812/1912 VRB02KT P6SM SCT080 OVC110
     FM181500 02005KT P6SM FEW040 SCT100
     FM190100 VRB02KT P6SM SCT250=

Latest METAR

055
SAUS80 KWBC 180900 RRB
MTRTYS
METAR KTYS 180853Z 13004KT 10SM OVC110 17/15 A2998 RMK AO2 SLP142
T01670150 50004


USA.gov is the U.S. government's official web portal to all federal, state and local government web resources and services.